Hasanuddin International Airport
WAAA : now visible

Airfield :











YOU CAN JOIN US ON...

 
LOGIN :

Register | Disclaimer

   EN    FR    IT 

 









Legend :    VFR   Marginal VFR   IFR   Intensive IFR   Very Intensive IFR
Visi :
Ceiling :
>= 8 km
>= 3000ft
5 to 8 km
1000 to 3000 ft
1500m to 5 km
500 to 1000 ft
800 to 1500m
200 to 500 ft
< 800m
< 200 ft
Symbols :   Thunderstorms  Fog  Heavy snow  Heavy precipitations  Wind > 20 kt







- Airport Elevation : 47 ft
- IATA code : UPG


WAAA - Hasanuddin International

CURRENT METAR :
  • 201330Z 10003KT 7000 FEW019 26/26 Q1014 NOSIG

EXPIRED METARs :
  • 201300Z 06003KT 360V100 7000 FEW019 26/26 Q1014 NOSIG
  • 201230Z 17001KT 8000 FEW018CB FEW019 26/27 Q1013 NOSIG
  • 201200Z 00000KT 8000 FEW018CB FEW019 27/26 Q1013 NOSIG
  • 201130Z 15001KT 8000 FEW018CB FEW019 27/27 Q1012 NOSIG
  • 201100Z 18001KT 8000 FEW019 28/26 Q1012 NOSIG

TAF TAF WAAA
Valid from the 20 at 12:00 until the 21 at 18:00 UTC


201100Z 2012/2118 10004KT 8000 SCT019
BECMG 2101/2103 31008KT 9999
BECMG 2110/2112 10005KT 8000
WAAF FIR / Asia



MET'MAP, your aeronautical weather chart ! - Copyright ORBIFLY December 2007 - Disclaimer

ORBIFLY MET'MAP TEAM :

Programming & Development : Alexandra Zaïnal
Concept & Development : Baudouin d'Aumeries
Co-Development & Prog : Marc-Olivier Méhu
Technical & hardware support : Manuel Goepfert

Contact : metmap@orbifly.com




SOURCES & CREDITS :

   NOAA       Earth
Advisory